Time;durP1;ratioP1;P1;durP2;ratioP2;P2;SDS_P1;SDS_P2;PMS_P1;PMS_P2;Temp;Humidity;BMP_temperature;BMP_pressure;BME280_temperature;BME280_humidity;BME280_pressure;Samples;Min_cycle;Max_cycle;Signal;HPM_P1;HPM_P2
2022/07/25 00:00:09;;;;;;;6.80;3.73;;;;;;;;;;5054598;28;20488;-76
2022/07/25 00:02:35;;;;;;;4.20;3.70;;;;;;;;;;5053786;28;20414;-76
2022/07/25 00:05:02;;;;;;;5.70;4.07;;;;;;;;;;5052284;28;20435;-76
2022/07/25 00:07:28;;;;;;;4.67;4.27;;;;;;;;;;5053206;28;20414;-76
2022/07/25 00:09:54;;;;;;;3.30;3.10;;;;;;;;;;5054027;28;20413;-76
2022/07/25 00:12:20;;;;;;;3.83;3.50;;;;;;;;;;5052523;28;20498;-76
2022/07/25 00:14:47;;;;;;;3.87;3.50;;;;;;;;;;5053598;28;20938;-76
2022/07/25 00:17:13;;;;;;;3.97;3.67;;;;;;;;;;5051665;28;20484;-76
2022/07/25 00:19:39;;;;;;;4.10;3.70;;;;;;;;;;5051736;28;20857;-76
2022/07/25 00:22:05;;;;;;;4.10;3.80;;;;;;;;;;5053343;28;20934;-76
2022/07/25 00:24:31;;;;;;;3.97;3.60;;;;;;;;;;5052998;28;20517;-76
2022/07/25 00:26:57;;;;;;;3.30;3.00;;;;;;;;;;5050840;28;20423;-76
2022/07/25 00:29:23;;;;;;;3.70;3.40;;;;;;;;;;5052857;28;20473;-76
2022/07/25 00:31:49;;;;;;;3.60;3.30;;;;;;;;;;5052416;28;20828;-76
2022/07/25 00:34:18;;;;;;;4.23;3.83;;;;;;;;;;5055734;28;20394;-76
2022/07/25 00:36:44;;;;;;;4.90;3.83;;;;;;;;;;5057052;28;20541;-76
2022/07/25 00:39:10;;;;;;;3.80;3.50;;;;;;;;;;5057231;28;20497;-76
2022/07/25 00:41:36;;;;;;;4.90;4.50;;;;;;;;;;5056111;28;20506;-76
2022/07/25 00:44:02;;;;;;;4.37;3.97;;;;;;;;;;5057609;28;20403;-76
2022/07/25 00:46:28;;;;;;;4.00;3.70;;;;;;;;;;5057152;28;20438;-76
2022/07/25 00:48:54;;;;;;;3.97;3.67;;;;;;;;;;5056278;28;20434;-76
2022/07/25 00:51:21;;;;;;;3.70;3.40;;;;;;;;;;5057907;28;20429;-76
2022/07/25 00:53:47;;;;;;;5.30;4.17;;;;;;;;;;5057550;28;20411;-76
2022/07/25 00:56:15;;;;;;;3.93;3.63;;;;;;;;;;5057242;28;20467;-76
2022/07/25 00:58:41;;;;;;;5.47;3.87;;;;;;;;;;5056435;28;20979;-76
2022/07/25 01:01:07;;;;;;;4.33;3.90;;;;;;;;;;5056530;28;20446;-77
2022/07/25 01:03:33;;;;;;;4.13;3.77;;;;;;;;;;5056571;28;20438;-76
2022/07/25 01:05:59;;;;;;;3.80;3.50;;;;;;;;;;5055255;28;20992;-76
2022/07/25 01:08:25;;;;;;;3.97;3.57;;;;;;;;;;5054736;28;20460;-77
2022/07/25 01:10:51;;;;;;;3.80;3.50;;;;;;;;;;5056530;28;20956;-76
2022/07/25 01:13:17;;;;;;;3.90;3.60;;;;;;;;;;5056649;28;20413;-76
2022/07/25 01:15:44;;;;;;;3.77;3.47;;;;;;;;;;5055661;28;20443;-76
2022/07/25 01:18:10;;;;;;;3.67;3.37;;;;;;;;;;5054969;28;20498;-76
2022/07/25 01:20:36;;;;;;;4.43;3.53;;;;;;;;;;5056760;28;20792;-76
2022/07/25 01:23:02;;;;;;;3.80;3.50;;;;;;;;;;5055324;28;20914;-76
2022/07/25 01:25:28;;;;;;;3.87;3.47;;;;;;;;;;5056843;28;20466;-76
2022/07/25 01:27:55;;;;;;;3.60;3.30;;;;;;;;;;5055177;28;20827;-76
2022/07/25 01:30:21;;;;;;;4.60;4.07;;;;;;;;;;5055118;28;20419;-76
2022/07/25 01:32:47;;;;;;;3.90;3.60;;;;;;;;;;5055250;28;20480;-76
2022/07/25 01:35:14;;;;;;;4.07;3.67;;;;;;;;;;5054978;28;20433;-76
2022/07/25 01:37:40;;;;;;;3.63;3.30;;;;;;;;;;5055580;28;20582;-76
2022/07/25 01:40:07;;;;;;;4.73;4.23;;;;;;;;;;5054894;28;20499;-76
2022/07/25 01:42:33;;;;;;;3.83;3.33;;;;;;;;;;5054615;28;20457;-76
2022/07/25 01:44:59;;;;;;;3.67;3.37;;;;;;;;;;5055331;28;20425;-76
2022/07/25 01:47:25;;;;;;;3.90;3.60;;;;;;;;;;5055491;28;20488;-76
2022/07/25 01:49:52;;;;;;;4.40;4.00;;;;;;;;;;5055011;28;20410;-76
2022/07/25 01:52:18;;;;;;;3.40;3.10;;;;;;;;;;5054679;28;20407;-76
2022/07/25 01:54:44;;;;;;;4.33;3.93;;;;;;;;;;5056507;28;20509;-76
2022/07/25 01:57:10;;;;;;;4.20;3.80;;;;;;;;;;5054608;28;20474;-76
2022/07/25 01:59:38;;;;;;;3.87;3.53;;;;;;;;;;5054796;28;20422;-76
2022/07/25 02:02:04;;;;;;;3.40;3.13;;;;;;;;;;5054465;28;20500;-76
2022/07/25 02:04:30;;;;;;;4.80;4.10;;;;;;;;;;5056087;28;20453;-76
2022/07/25 02:06:56;;;;;;;4.20;3.73;;;;;;;;;;5055232;28;20406;-76
2022/07/25 02:09:22;;;;;;;4.70;3.93;;;;;;;;;;5054983;28;20412;-75
2022/07/25 02:11:48;;;;;;;3.97;3.67;;;;;;;;;;5053827;28;20414;-76
2022/07/25 02:14:14;;;;;;;3.97;3.37;;;;;;;;;;5055779;28;20805;-76
2022/07/25 02:16:40;;;;;;;3.57;3.27;;;;;;;;;;5055230;28;20489;-76
2022/07/25 02:19:06;;;;;;;4.37;3.97;;;;;;;;;;5055192;28;20466;-76
2022/07/25 02:21:33;;;;;;;4.17;3.50;;;;;;;;;;5054229;28;20821;-76
2022/07/25 02:23:59;;;;;;;5.43;3.67;;;;;;;;;;5055092;28;20412;-76
2022/07/25 02:26:25;;;;;;;4.77;4.37;;;;;;;;;;5053595;28;20447;-76
2022/07/25 02:28:51;;;;;;;3.90;3.60;;;;;;;;;;5054569;28;20778;-76
2022/07/25 02:31:17;;;;;;;4.30;3.40;;;;;;;;;;5053733;28;20967;-76
2022/07/25 02:33:43;;;;;;;4.10;3.70;;;;;;;;;;5053424;28;20420;-76
2022/07/25 02:36:10;;;;;;;4.73;3.97;;;;;;;;;;5053106;28;20563;-76
2022/07/25 02:38:36;;;;;;;5.27;4.60;;;;;;;;;;5054074;28;20417;-76
2022/07/25 02:41:03;;;;;;;4.13;3.73;;;;;;;;;;5054417;28;20438;-76
2022/07/25 02:43:29;;;;;;;5.63;4.40;;;;;;;;;;5054118;28;20425;-76
2022/07/25 02:45:55;;;;;;;3.87;3.57;;;;;;;;;;5056235;28;20427;-75
2022/07/25 02:48:21;;;;;;;5.70;4.10;;;;;;;;;;5055702;28;20903;-78
2022/07/25 02:50:47;;;;;;;3.73;3.43;;;;;;;;;;5056022;28;20425;-78
2022/07/25 02:53:13;;;;;;;4.73;3.73;;;;;;;;;;5057114;28;20526;-78
2022/07/25 02:55:39;;;;;;;5.87;3.77;;;;;;;;;;5057428;28;20469;-77
2022/07/25 02:58:05;;;;;;;4.90;4.50;;;;;;;;;;5056112;28;21037;-78
2022/07/25 03:00:31;;;;;;;3.80;3.50;;;;;;;;;;5058031;28;20476;-78
2022/07/25 03:02:57;;;;;;;4.20;3.80;;;;;;;;;;5057897;28;20975;-78
2022/07/25 03:05:23;;;;;;;3.80;3.30;;;;;;;;;;5058226;28;20426;-78
2022/07/25 03:07:50;;;;;;;4.40;4.00;;;;;;;;;;5056032;28;20415;-77
2022/07/25 03:10:16;;;;;;;4.80;4.23;;;;;;;;;;5056647;28;20423;-77
2022/07/25 03:12:42;;;;;;;4.00;3.60;;;;;;;;;;5059712;28;20423;-76
2022/07/25 03:15:09;;;;;;;4.57;3.43;;;;;;;;;;5058414;28;20433;-76
2022/07/25 03:17:35;;;;;;;4.40;4.10;;;;;;;;;;5057118;28;20466;-76
2022/07/25 03:20:01;;;;;;;4.53;4.13;;;;;;;;;;5055385;28;20431;-76
2022/07/25 03:22:27;;;;;;;4.40;4.00;;;;;;;;;;5054758;28;20464;-76
2022/07/25 03:24:53;;;;;;;5.87;4.53;;;;;;;;;;5054896;28;20860;-76
2022/07/25 03:27:20;;;;;;;4.40;4.00;;;;;;;;;;5054459;28;20437;-76
2022/07/25 03:29:46;;;;;;;3.73;3.43;;;;;;;;;;5054839;28;20458;-76
2022/07/25 03:32:12;;;;;;;4.47;4.07;;;;;;;;;;5054596;28;20420;-76
2022/07/25 03:34:38;;;;;;;5.40;3.63;;;;;;;;;;5054858;28;20488;-76
2022/07/25 03:37:04;;;;;;;4.63;4.30;;;;;;;;;;5052489;28;21205;-76
2022/07/25 03:39:30;;;;;;;4.67;4.20;;;;;;;;;;5053210;28;20856;-76
2022/07/25 03:41:57;;;;;;;4.10;3.80;;;;;;;;;;5053470;28;20425;-76
2022/07/25 03:44:23;;;;;;;4.53;4.13;;;;;;;;;;5052649;28;20817;-76
2022/07/25 03:46:50;;;;;;;4.70;4.30;;;;;;;;;;5052410;28;20798;-76
2022/07/25 03:49:16;;;;;;;4.10;3.80;;;;;;;;;;5053472;28;20422;-76
2022/07/25 03:51:42;;;;;;;4.00;3.70;;;;;;;;;;5053061;28;20427;-76
2022/07/25 03:54:12;;;;;;;4.27;3.87;;;;;;;;;;5052923;28;20560;-76
2022/07/25 03:56:38;;;;;;;3.80;3.33;;;;;;;;;;5053610;28;20520;-76
2022/07/25 03:59:04;;;;;;;4.10;3.70;;;;;;;;;;5052243;28;20418;-76
2022/07/25 04:01:31;;;;;;;4.20;3.80;;;;;;;;;;5052135;28;20429;-76
2022/07/25 04:03:57;;;;;;;4.27;3.90;;;;;;;;;;5053141;28;20410;-76
2022/07/25 04:06:23;;;;;;;5.40;4.70;;;;;;;;;;5051584;28;20453;-76
2022/07/25 04:08:49;;;;;;;4.23;3.83;;;;;;;;;;5050739;28;20823;-76
2022/07/25 04:11:15;;;;;;;4.63;4.10;;;;;;;;;;5053048;28;20411;-76
2022/07/25 04:13:41;;;;;;;4.50;3.87;;;;;;;;;;5053095;28;20425;-76
2022/07/25 04:16:08;;;;;;;4.73;4.27;;;;;;;;;;5051756;28;20437;-76
2022/07/25 04:18:34;;;;;;;4.73;4.23;;;;;;;;;;5051858;28;20453;-76
2022/07/25 04:21:00;;;;;;;5.20;4.27;;;;;;;;;;5051351;28;20448;-76
2022/07/25 04:23:27;;;;;;;4.60;4.20;;;;;;;;;;5052762;28;21128;-76
2022/07/25 04:25:53;;;;;;;3.57;3.27;;;;;;;;;;5052956;28;20457;-76
2022/07/25 04:28:19;;;;;;;4.20;3.80;;;;;;;;;;5051303;28;20750;-76
2022/07/25 04:30:49;;;;;;;4.63;4.13;;;;;;;;;;5052059;28;20423;-76
2022/07/25 04:33:15;;;;;;;4.57;4.17;;;;;;;;;;5051503;28;20410;-76
2022/07/25 04:35:41;;;;;;;3.70;3.40;;;;;;;;;;5050776;28;20810;-76
2022/07/25 04:38:08;;;;;;;4.10;3.70;;;;;;;;;;5051231;28;20463;-76
2022/07/25 04:40:34;;;;;;;3.53;3.23;;;;;;;;;;5052028;28;20406;-76
2022/07/25 04:43:00;;;;;;;4.00;3.47;;;;;;;;;;5050770;28;20403;-77
2022/07/25 04:45:26;;;;;;;4.10;3.70;;;;;;;;;;5051547;28;21131;-76
2022/07/25 04:47:52;;;;;;;4.27;3.87;;;;;;;;;;5052278;28;20452;-77
2022/07/25 04:50:18;;;;;;;4.43;4.03;;;;;;;;;;5053518;28;20414;-76
2022/07/25 04:52:44;;;;;;;4.30;3.90;;;;;;;;;;5051943;28;20417;-76
2022/07/25 04:55:11;;;;;;;4.10;3.50;;;;;;;;;;5053426;28;20449;-76
2022/07/25 04:57:37;;;;;;;4.13;3.80;;;;;;;;;;5052971;28;20489;-76
2022/07/25 05:00:07;;;;;;;4.43;3.87;;;;;;;;;;5050746;28;20460;-77
2022/07/25 05:02:33;;;;;;;4.30;3.90;;;;;;;;;;5051402;28;20781;-79
2022/07/25 05:05:00;;;;;;;3.23;2.93;;;;;;;;;;5034925;28;20974;-79
2022/07/25 05:07:27;;;;;;;3.70;3.40;;;;;;;;;;5050895;28;20454;-79
2022/07/25 05:09:53;;;;;;;3.90;3.60;;;;;;;;;;5051551;28;21182;-79
2022/07/25 05:12:19;;;;;;;5.00;3.80;;;;;;;;;;5050739;28;20454;-80
2022/07/25 05:14:45;;;;;;;3.83;3.43;;;;;;;;;;5052156;28;20436;-80
2022/07/25 05:17:11;;;;;;;6.47;3.30;;;;;;;;;;5053378;28;20497;-78
2022/07/25 05:19:37;;;;;;;4.03;3.63;;;;;;;;;;5055491;28;20442;-80
2022/07/25 05:22:03;;;;;;;3.50;3.10;;;;;;;;;;5056717;28;20457;-80
2022/07/25 05:24:36;;;;;;;3.40;3.20;;;;;;;;;;5057838;28;20915;-80
2022/07/25 05:27:03;;;;;;;3.80;3.40;;;;;;;;;;5056377;28;20478;-79
2022/07/25 05:29:29;;;;;;;3.83;3.53;;;;;;;;;;5057162;28;20424;-79
2022/07/25 05:31:55;;;;;;;3.47;3.17;;;;;;;;;;5058086;28;20533;-79
2022/07/25 05:34:21;;;;;;;3.17;2.90;;;;;;;;;;5057973;28;20906;-79
2022/07/25 05:36:47;;;;;;;3.70;3.40;;;;;;;;;;5056507;28;20993;-79
2022/07/25 05:39:13;;;;;;;5.50;2.93;;;;;;;;;;5056458;28;20415;-79
2022/07/25 05:41:39;;;;;;;3.50;3.20;;;;;;;;;;5056361;28;20414;-79
2022/07/25 05:44:05;;;;;;;3.40;3.10;;;;;;;;;;5058155;28;20406;-79
2022/07/25 05:46:32;;;;;;;4.20;3.80;;;;;;;;;;5055856;28;20444;-79
2022/07/25 05:48:58;;;;;;;4.27;3.27;;;;;;;;;;5056954;28;20536;-79
2022/07/25 05:51:24;;;;;;;3.83;3.10;;;;;;;;;;5056482;28;20431;-79
2022/07/25 05:53:50;;;;;;;3.60;2.67;;;;;;;;;;5058563;28;20416;-79
2022/07/25 05:56:16;;;;;;;3.20;2.90;;;;;;;;;;5057019;28;20461;-79
2022/07/25 05:58:42;;;;;;;4.73;3.10;;;;;;;;;;5055879;28;20930;-79
2022/07/25 06:01:14;;;;;;;3.10;2.80;;;;;;;;;;5058223;28;20421;-79
2022/07/25 06:03:40;;;;;;;3.80;2.90;;;;;;;;;;5057361;28;20472;-79
2022/07/25 06:06:07;;;;;;;5.10;3.20;;;;;;;;;;5058843;28;20430;-79
2022/07/25 06:08:34;;;;;;;2.70;2.50;;;;;;;;;;5056006;28;20848;-79
2022/07/25 06:11:00;;;;;;;2.50;2.30;;;;;;;;;;5056749;28;20461;-79
2022/07/25 06:13:26;;;;;;;2.83;2.40;;;;;;;;;;5056664;28;20415;-79
2022/07/25 06:15:53;;;;;;;4.60;3.00;;;;;;;;;;5056629;28;20438;-79
2022/07/25 06:18:19;;;;;;;5.60;2.30;;;;;;;;;;5055506;28;20522;-79
2022/07/25 06:20:45;;;;;;;5.53;3.27;;;;;;;;;;5056945;28;20492;-79
2022/07/25 06:23:11;;;;;;;4.60;2.70;;;;;;;;;;5056310;28;20482;-79
2022/07/25 06:25:37;;;;;;;4.33;2.50;;;;;;;;;;5056102;28;20949;-79
2022/07/25 06:28:03;;;;;;;4.87;2.80;;;;;;;;;;5056104;28;20937;-79
2022/07/25 06:30:29;;;;;;;3.93;2.50;;;;;;;;;;5056170;28;20498;-79
2022/07/25 06:32:55;;;;;;;2.83;2.43;;;;;;;;;;5055431;28;20795;-80
2022/07/25 06:35:21;;;;;;;5.87;3.83;;;;;;;;;;5038101;28;20530;-82
2022/07/25 06:37:47;;;;;;;2.60;2.37;;;;;;;;;;5039194;28;20523;-81
2022/07/25 06:40:14;;;;;;;6.20;3.00;;;;;;;;;;5057983;28;20446;-81
2022/07/25 06:42:41;;;;;;;3.80;3.50;;;;;;;;;;5057602;28;20411;-82
2022/07/25 06:45:08;;;;;;;2.90;2.60;;;;;;;;;;5055582;28;20438;-81
2022/07/25 06:47:35;;;;;;;2.77;2.50;;;;;;;;;;5057316;28;20418;-81
2022/07/25 06:50:01;;;;;;;2.43;2.23;;;;;;;;;;5057835;28;20427;-80
2022/07/25 06:52:27;;;;;;;3.30;2.80;;;;;;;;;;5056722;28;20434;-81
2022/07/25 06:54:53;;;;;;;3.17;2.87;;;;;;;;;;5059376;28;20484;-81
2022/07/25 06:57:19;;;;;;;2.40;2.20;;;;;;;;;;5057508;28;20456;-81
2022/07/25 06:59:45;;;;;;;3.00;2.80;;;;;;;;;;5058006;28;20494;-81
2022/07/25 07:02:11;;;;;;;2.67;2.47;;;;;;;;;;5057408;28;20528;-81
2022/07/25 07:04:37;;;;;;;2.70;2.50;;;;;;;;;;5058207;28;20430;-81
2022/07/25 07:07:03;;;;;;;2.97;2.30;;;;;;;;;;5057160;28;20429;-81
2022/07/25 07:09:30;;;;;;;2.90;2.40;;;;;;;;;;5058124;28;20404;-81
2022/07/25 07:11:56;;;;;;;2.50;2.30;;;;;;;;;;5057196;28;20479;-81
2022/07/25 07:14:22;;;;;;;2.37;2.17;;;;;;;;;;5057012;28;20429;-81
2022/07/25 07:16:49;;;;;;;3.40;2.10;;;;;;;;;;5056841;28;20495;-81
2022/07/25 07:19:15;;;;;;;3.53;2.63;;;;;;;;;;5057487;28;20422;-80
2022/07/25 07:21:41;;;;;;;3.23;2.57;;;;;;;;;;5058957;28;20415;-81
2022/07/25 07:24:08;;;;;;;3.53;2.70;;;;;;;;;;5059542;28;20461;-82
2022/07/25 07:26:34;;;;;;;2.90;1.90;;;;;;;;;;5056805;28;20415;-81
2022/07/25 07:29:01;;;;;;;2.63;2.43;;;;;;;;;;5056984;28;20438;-79
2022/07/25 07:31:27;;;;;;;2.20;2.00;;;;;;;;;;5056529;28;20423;-80
2022/07/25 07:33:54;;;;;;;4.17;2.50;;;;;;;;;;5057241;28;20430;-80
2022/07/25 07:36:20;;;;;;;2.50;2.13;;;;;;;;;;5055969;28;20444;-79
2022/07/25 07:38:47;;;;;;;2.37;2.13;;;;;;;;;;5055413;28;20476;-79
2022/07/25 07:41:13;;;;;;;2.27;1.83;;;;;;;;;;5055588;28;20992;-79
2022/07/25 07:43:40;;;;;;;5.97;3.63;;;;;;;;;;5055044;28;20410;-78
2022/07/25 07:46:06;;;;;;;5.73;1.80;;;;;;;;;;5055695;28;20457;-78
2022/07/25 07:48:32;;;;;;;3.70;2.23;;;;;;;;;;5057273;28;20647;-79
2022/07/25 07:50:59;;;;;;;4.00;2.03;;;;;;;;;;5054909;28;20427;-82
2022/07/25 07:55:42;;;;;;;2.73;2.30;;;;;;;;;;5056651;28;20449;-81
2022/07/25 07:56:11;;;;;;;3.43;2.10;;;;;;;;;;5058442;28;20487;-81
2022/07/25 07:58:38;;;;;;;2.87;2.13;;;;;;;;;;5056840;28;20981;-81
2022/07/25 08:01:04;;;;;;;2.40;2.20;;;;;;;;;;5057543;28;20862;-81
2022/07/25 08:03:30;;;;;;;2.43;2.07;;;;;;;;;;5057021;28;20557;-81
2022/07/25 08:05:56;;;;;;;5.40;2.40;;;;;;;;;;5057952;28;20422;-81
2022/07/25 08:08:22;;;;;;;4.20;2.10;;;;;;;;;;5056248;28;20505;-81
2022/07/25 08:10:49;;;;;;;2.23;1.87;;;;;;;;;;5056906;28;20546;-81
2022/07/25 08:13:16;;;;;;;3.13;2.17;;;;;;;;;;5056802;28;20414;-81
2022/07/25 08:15:43;;;;;;;3.77;1.93;;;;;;;;;;5056714;28;20698;-80
2022/07/25 08:18:09;;;;;;;2.77;2.27;;;;;;;;;;5057499;28;20535;-81
2022/07/25 08:20:35;;;;;;;3.03;2.10;;;;;;;;;;5058369;28;20401;-81
2022/07/25 08:23:02;;;;;;;4.00;2.10;;;;;;;;;;5058673;28;20415;-81
2022/07/25 08:25:28;;;;;;;3.00;2.23;;;;;;;;;;5057557;28;20447;-81
2022/07/25 08:27:54;;;;;;;3.13;2.30;;;;;;;;;;5055582;28;20421;-81
2022/07/25 08:30:21;;;;;;;2.30;2.10;;;;;;;;;;5056397;28;20451;-81
2022/07/25 08:32:47;;;;;;;2.40;2.10;;;;;;;;;;5056118;28;20414;-80
2022/07/25 08:35:13;;;;;;;2.87;2.27;;;;;;;;;;5056637;28;20446;-81
2022/07/25 08:37:39;;;;;;;4.53;2.43;;;;;;;;;;5056852;28;20462;-79
2022/07/25 08:40:05;;;;;;;2.03;1.87;;;;;;;;;;5056897;28;20594;-79
2022/07/25 08:42:33;;;;;;;3.00;1.97;;;;;;;;;;5037819;28;20459;-79
2022/07/25 08:45:02;;;;;;;3.90;2.37;;;;;;;;;;5055070;28;20440;-79
2022/07/25 08:47:28;;;;;;;8.03;1.90;;;;;;;;;;5055154;28;20423;-79
2022/07/25 08:49:55;;;;;;;2.50;2.00;;;;;;;;;;5057302;28;20968;-79
2022/07/25 08:52:22;;;;;;;3.13;2.37;;;;;;;;;;5057057;28;20411;-79
2022/07/25 08:54:49;;;;;;;2.37;2.17;;;;;;;;;;5055241;28;20475;-80
2022/07/25 08:57:15;;;;;;;2.33;1.90;;;;;;;;;;5058829;28;20474;-79
2022/07/25 08:59:41;;;;;;;2.53;2.33;;;;;;;;;;5058517;28;20429;-79
2022/07/25 09:02:09;;;;;;;2.57;2.20;;;;;;;;;;5058542;28;20993;-79
2022/07/25 09:04:36;;;;;;;2.90;2.40;;;;;;;;;;5057646;28;20440;-79
2022/07/25 09:07:03;;;;;;;2.20;2.00;;;;;;;;;;5055160;28;20418;-80
2022/07/25 09:09:37;;;;;;;1.73;1.63;;;;;;;;;;5057472;28;20423;-80
2022/07/25 09:12:04;;;;;;;3.10;2.30;;;;;;;;;;5057678;28;20442;-79
2022/07/25 09:14:30;;;;;;;2.63;1.80;;;;;;;;;;5058486;28;21026;-79
2022/07/25 09:16:56;;;;;;;3.67;1.90;;;;;;;;;;5058359;28;20538;-78
2022/07/25 09:19:24;;;;;;;2.30;2.10;;;;;;;;;;5058372;28;20423;-78
2022/07/25 09:22:01;;;;;;;2.53;2.00;;;;;;;;;;5059339;28;20436;-79
2022/07/25 09:24:27;;;;;;;2.50;2.03;;;;;;;;;;5058011;28;20514;-80
2022/07/25 09:26:55;;;;;;;2.17;1.80;;;;;;;;;;5057173;28;20856;-79
2022/07/25 09:29:22;;;;;;;2.13;1.87;;;;;;;;;;5040939;28;20783;-79
2022/07/25 09:31:49;;;;;;;2.60;2.00;;;;;;;;;;5058217;28;20419;-79
2022/07/25 09:34:33;;;;;;;5.53;1.77;;;;;;;;;;5057742;28;20420;-79
2022/07/25 09:37:00;;;;;;;2.63;2.00;;;;;;;;;;5057287;28;20489;-80
2022/07/25 09:39:33;;;;;;;4.07;2.10;;;;;;;;;;5057280;28;20429;-79
2022/07/25 09:42:00;;;;;;;2.83;2.63;;;;;;;;;;5057014;28;20419;-79
2022/07/25 09:44:29;;;;;;;2.53;2.33;;;;;;;;;;5056608;28;20469;-79
2022/07/25 09:46:59;;;;;;;2.70;2.17;;;;;;;;;;5058169;28;20418;-79
2022/07/25 09:49:25;;;;;;;2.10;1.90;;;;;;;;;;5057276;28;20451;-79
2022/07/25 09:51:52;;;;;;;2.53;2.00;;;;;;;;;;5058519;28;20412;-79
2022/07/25 09:54:18;;;;;;;2.80;2.00;;;;;;;;;;5057423;28;20418;-79
2022/07/25 09:56:44;;;;;;;2.40;2.20;;;;;;;;;;5056581;28;20467;-79
2022/07/25 09:59:10;;;;;;;3.30;2.00;;;;;;;;;;5058664;28;20523;-79
2022/07/25 10:01:48;;;;;;;2.07;1.83;;;;;;;;;;5056681;28;20414;-79
2022/07/25 10:04:18;;;;;;;3.13;2.20;;;;;;;;;;5056975;28;20426;-78
2022/07/25 10:07:05;;;;;;;3.17;1.73;;;;;;;;;;5055625;28;20419;-79
2022/07/25 10:09:31;;;;;;;2.10;1.77;;;;;;;;;;5057452;28;20423;-80
2022/07/25 10:12:08;;;;;;;1.97;1.87;;;;;;;;;;5057086;28;20420;-79
2022/07/25 10:14:34;;;;;;;2.77;2.40;;;;;;;;;;5056584;28;20461;-79
2022/07/25 10:17:01;;;;;;;3.00;1.80;;;;;;;;;;5055829;28;20475;-80
2022/07/25 10:19:43;;;;;;;2.47;2.17;;;;;;;;;;5055926;28;20991;-79
2022/07/25 10:22:10;;;;;;;2.33;2.10;;;;;;;;;;5055508;28;20422;-79
2022/07/25 10:24:37;;;;;;;2.40;2.20;;;;;;;;;;5055881;28;20830;-79
2022/07/25 10:27:11;;;;;;;3.50;2.37;;;;;;;;;;5056518;28;20476;-79
2022/07/25 10:29:38;;;;;;;7.30;2.00;;;;;;;;;;5057259;28;20423;-80
2022/07/25 10:32:09;;;;;;;5.70;1.83;;;;;;;;;;5056785;28;20422;-79
2022/07/25 10:34:35;;;;;;;3.30;1.93;;;;;;;;;;5057071;28;20519;-79
2022/07/25 10:37:14;;;;;;;2.13;1.63;;;;;;;;;;5056284;28;21030;-79
2022/07/25 10:39:43;;;;;;;2.33;2.13;;;;;;;;;;5057048;28;20419;-79
2022/07/25 10:42:12;;;;;;;2.90;1.70;;;;;;;;;;5056501;28;20498;-79
2022/07/25 10:44:40;;;;;;;3.57;1.80;;;;;;;;;;5057649;28;20438;-79
2022/07/25 10:47:06;;;;;;;2.60;2.10;;;;;;;;;;5056619;28;20412;-79
2022/07/25 10:49:36;;;;;;;3.50;2.20;;;;;;;;;;5057485;28;20411;-80
2022/07/25 10:52:02;;;;;;;2.37;2.17;;;;;;;;;;5056882;28;20438;-80
2022/07/25 10:54:38;;;;;;;2.00;1.90;;;;;;;;;;5056531;28;20469;-79
2022/07/25 10:57:06;;;;;;;2.77;2.50;;;;;;;;;;5055824;28;20564;-80
2022/07/25 10:59:36;;;;;;;2.17;1.60;;;;;;;;;;5057115;28;20900;-79
2022/07/25 11:02:03;;;;;;;3.17;2.13;;;;;;;;;;5055946;28;20427;-79
2022/07/25 11:04:29;;;;;;;3.67;1.70;;;;;;;;;;5056139;28;20427;-79
2022/07/25 11:06:55;;;;;;;3.50;2.00;;;;;;;;;;5055484;28;20415;-79
2022/07/25 11:09:23;;;;;;;2.67;2.07;;;;;;;;;;5056021;28;20415;-79
2022/07/25 11:11:50;;;;;;;2.27;2.00;;;;;;;;;;5056121;28;20430;-78
2022/07/25 11:14:21;;;;;;;2.30;1.70;;;;;;;;;;5057358;28;20408;-79
2022/07/25 11:16:48;;;;;;;2.00;1.90;;;;;;;;;;5055138;28;20463;-79
2022/07/25 11:19:17;;;;;;;1.90;1.77;;;;;;;;;;5054882;28;20425;-79
2022/07/25 11:21:50;;;;;;;2.80;1.90;;;;;;;;;;5055595;28;20472;-79
2022/07/25 11:24:17;;;;;;;2.70;1.77;;;;;;;;;;5056156;28;20492;-80
2022/07/25 11:26:50;;;;;;;2.63;2.00;;;;;;;;;;5055790;28;20416;-79
2022/07/25 11:29:25;;;;;;;2.00;1.90;;;;;;;;;;5056390;28;20597;-79
2022/07/25 11:32:02;;;;;;;2.90;1.70;;;;;;;;;;5058522;28;20411;-80
2022/07/25 11:34:32;;;;;;;2.63;2.03;;;;;;;;;;5058330;28;20427;-79
2022/07/25 11:36:59;;;;;;;2.67;2.10;;;;;;;;;;5056646;28;20478;-79
2022/07/25 11:39:29;;;;;;;1.87;1.77;;;;;;;;;;5057516;28;20419;-79
2022/07/25 11:42:17;;;;;;;3.30;1.87;;;;;;;;;;5056188;28;20532;-79
2022/07/25 11:44:43;;;;;;;2.17;1.80;;;;;;;;;;5057340;28;20496;-79
2022/07/25 11:47:21;;;;;;;2.70;2.27;;;;;;;;;;5056850;28;20430;-79
2022/07/25 11:49:48;;;;;;;3.60;2.13;;;;;;;;;;5055340;28;20415;-78
2022/07/25 11:52:31;;;;;;;1.97;1.70;;;;;;;;;;5056691;28;20427;-79
2022/07/25 11:54:57;;;;;;;2.73;1.77;;;;;;;;;;5057486;28;20424;-79
2022/07/25 11:57:24;;;;;;;2.17;1.90;;;;;;;;;;5055987;28;20465;-79
2022/07/25 11:59:50;;;;;;;2.03;1.80;;;;;;;;;;5056646;28;20518;-79
2022/07/25 12:02:34;;;;;;;3.30;1.90;;;;;;;;;;5057793;28;20506;-79
2022/07/25 12:05:01;;;;;;;1.73;1.63;;;;;;;;;;5056826;28;20759;-78
2022/07/25 12:07:47;;;;;;;1.63;1.53;;;;;;;;;;5055846;28;20419;-79
2022/07/25 12:10:23;;;;;;;3.00;1.63;;;;;;;;;;5056438;28;20455;-78
2022/07/25 12:12:54;;;;;;;2.77;1.80;;;;;;;;;;5057881;28;20447;-79
2022/07/25 12:15:21;;;;;;;2.50;1.93;;;;;;;;;;5056567;28;20463;-79
2022/07/25 12:17:48;;;;;;;2.17;1.77;;;;;;;;;;5055872;28;20470;-79
2022/07/25 12:20:17;;;;;;;3.03;1.87;;;;;;;;;;5056960;28;20984;-79
2022/07/25 12:22:43;;;;;;;2.73;2.23;;;;;;;;;;5056723;28;20418;-79
2022/07/25 12:25:10;;;;;;;2.80;1.73;;;;;;;;;;5056026;28;20470;-78
2022/07/25 12:27:37;;;;;;;3.63;2.03;;;;;;;;;;5057645;28;20692;-79
2022/07/25 12:30:03;;;;;;;2.10;1.80;;;;;;;;;;5059100;28;20496;-80
2022/07/25 12:32:29;;;;;;;2.30;2.10;;;;;;;;;;5061118;28;20410;-79
2022/07/25 12:34:57;;;;;;;2.30;2.00;;;;;;;;;;5062279;28;20446;-78
2022/07/25 12:37:23;;;;;;;2.50;1.77;;;;;;;;;;5060305;28;20463;-78
2022/07/25 12:39:49;;;;;;;2.97;1.93;;;;;;;;;;5061614;28;20431;-78
2022/07/25 12:42:15;;;;;;;3.80;1.57;;;;;;;;;;5062153;28;20415;-79
2022/07/25 12:44:41;;;;;;;3.07;2.07;;;;;;;;;;5060432;28;20432;-78
2022/07/25 12:47:07;;;;;;;2.27;2.07;;;;;;;;;;5061648;28;20412;-78
2022/07/25 12:49:33;;;;;;;1.70;1.60;;;;;;;;;;5061147;28;20491;-78
2022/07/25 12:51:59;;;;;;;3.30;1.77;;;;;;;;;;5061747;28;20410;-79
2022/07/25 12:54:25;;;;;;;2.57;2.20;;;;;;;;;;5060638;28;20578;-78
2022/07/25 12:56:51;;;;;;;2.40;2.10;;;;;;;;;;5059864;28;21087;-78
2022/07/25 12:59:17;;;;;;;3.13;1.50;;;;;;;;;;5060564;28;20855;-79
2022/07/25 13:01:43;;;;;;;2.40;1.83;;;;;;;;;;5060683;28;20422;-78
2022/07/25 13:04:09;;;;;;;2.17;1.70;;;;;;;;;;5061038;28;20882;-79
2022/07/25 13:06:36;;;;;;;2.23;1.90;;;;;;;;;;5060825;28;20435;-78
2022/07/25 13:09:02;;;;;;;2.77;2.33;;;;;;;;;;5061330;28;20409;-79
2022/07/25 13:11:28;;;;;;;2.07;1.87;;;;;;;;;;5061584;28;20424;-79
2022/07/25 13:13:54;;;;;;;3.80;1.70;;;;;;;;;;5061598;28;20407;-78
2022/07/25 13:16:21;;;;;;;2.67;2.10;;;;;;;;;;5060645;28;20488;-79
2022/07/25 13:18:47;;;;;;;2.10;1.73;;;;;;;;;;5059772;28;20483;-79
2022/07/25 13:21:14;;;;;;;4.03;2.07;;;;;;;;;;5061055;28;20423;-78
2022/07/25 13:23:40;;;;;;;2.53;1.67;;;;;;;;;;5060956;28;20419;-79
2022/07/25 13:26:07;;;;;;;3.03;2.00;;;;;;;;;;5061404;28;20442;-79
2022/07/25 13:28:33;;;;;;;3.20;1.70;;;;;;;;;;5043977;28;20434;-79
2022/07/25 13:31:05;;;;;;;2.07;1.43;;;;;;;;;;5062468;28;20895;-78
2022/07/25 13:33:31;;;;;;;2.60;1.93;;;;;;;;;;5060424;28;20477;-78
2022/07/25 13:35:58;;;;;;;2.87;1.60;;;;;;;;;;5061915;28;20465;-79
2022/07/25 13:38:24;;;;;;;5.03;1.80;;;;;;;;;;5059991;28;20462;-79
2022/07/25 13:40:50;;;;;;;1.93;1.70;;;;;;;;;;5060310;28;20415;-78
2022/07/25 13:43:16;;;;;;;5.03;2.00;;;;;;;;;;5060972;28;20900;-79
2022/07/25 13:45:42;;;;;;;2.30;1.70;;;;;;;;;;5060709;28;20429;-79
2022/07/25 13:48:09;;;;;;;3.17;1.57;;;;;;;;;;5060085;28;20420;-78
2022/07/25 13:50:35;;;;;;;2.50;1.67;;;;;;;;;;5061118;28;20419;-79
2022/07/25 13:53:02;;;;;;;2.57;1.80;;;;;;;;;;5063090;28;20495;-80
2022/07/25 13:55:29;;;;;;;2.63;1.80;;;;;;;;;;5061782;28;20902;-78
2022/07/25 13:57:55;;;;;;;2.33;1.70;;;;;;;;;;5060175;28;20470;-78
2022/07/25 14:00:21;;;;;;;2.93;1.73;;;;;;;;;;5060988;28;20454;-78
2022/07/25 14:02:47;;;;;;;3.63;2.00;;;;;;;;;;5060848;28;20533;-78
2022/07/25 14:05:13;;;;;;;2.17;1.63;;;;;;;;;;5061037;28;20936;-78
2022/07/25 14:07:39;;;;;;;4.97;1.70;;;;;;;;;;5060941;28;20430;-79
2022/07/25 14:10:07;;;;;;;4.37;2.10;;;;;;;;;;5061778;28;20462;-79
2022/07/25 14:12:38;;;;;;;2.70;1.97;;;;;;;;;;5067582;28;20420;-78
2022/07/25 14:15:04;;;;;;;2.57;1.60;;;;;;;;;;5057476;28;20439;-79
2022/07/25 14:17:32;;;;;;;1.90;1.77;;;;;;;;;;5055491;28;20481;-80
2022/07/25 14:19:58;;;;;;;3.23;1.70;;;;;;;;;;5058094;28;20488;-78
2022/07/25 14:22:24;;;;;;;4.00;1.77;;;;;;;;;;5058042;28;20904;-79
2022/07/25 14:24:50;;;;;;;4.90;1.37;;;;;;;;;;5056720;28;20490;-78
2022/07/25 14:27:16;;;;;;;2.60;1.67;;;;;;;;;;5054645;28;20525;-80
2022/07/25 14:29:42;;;;;;;2.83;1.70;;;;;;;;;;5055691;28;20466;-79
2022/07/25 14:32:08;;;;;;;2.40;1.70;;;;;;;;;;5056174;28;20429;-80
2022/07/25 14:34:34;;;;;;;3.20;1.77;;;;;;;;;;5054635;28;20479;-80
2022/07/25 14:37:01;;;;;;;3.20;1.57;;;;;;;;;;5053842;28;20490;-79
2022/07/25 14:39:27;;;;;;;4.30;1.77;;;;;;;;;;5054225;28;20427;-79
2022/07/25 14:41:54;;;;;;;2.80;1.77;;;;;;;;;;5056211;28;20846;-82